Time;durP1;ratioP1;P1;durP2;ratioP2;P2;SDS_P1;SDS_P2;PMS_P1;PMS_P2;Temp;Humidity;BMP_temperature;BMP_pressure;BME280_temperature;BME280_humidity;BME280_pressure;Samples;Min_cycle;Max_cycle;Signal;HPM_P1;HPM_P2
2022/09/28 00:01:27;;;;;;;;;1.00;1.00;;;;;13.66;100.00;99221.78;4952575;28;45459;-83
2022/09/28 00:03:58;;;;;;;;;1.00;1.00;;;;;13.75;100.00;99231.38;4962831;28;45864;-83
2022/09/28 00:06:26;;;;;;;;;1.00;1.00;;;;;13.75;100.00;99234.03;4990389;28;45324;-83
2022/09/28 00:08:52;;;;;;;;;1.00;1.00;;;;;13.70;100.00;99235.94;4974497;28;44907;-82
2022/09/28 00:11:21;;;;;;;;;1.50;1.50;;;;;13.70;100.00;99234.16;4974743;28;45351;-82
2022/09/28 00:13:51;;;;;;;;;2.33;2.33;;;;;13.71;100.00;99243.91;4975048;28;44902;-81
2022/09/28 00:16:21;;;;;;;;;1.25;1.25;;;;;13.71;100.00;99241.22;4991621;28;45434;-81
2022/09/28 00:18:48;;;;;;;;;1.67;1.00;;;;;13.69;100.00;99235.03;4990274;28;45392;-83
2022/09/28 00:21:21;;;;;;;;;2.00;2.00;;;;;13.67;100.00;99234.19;4990325;28;45452;-83
2022/09/28 00:26:32;;;;;;;;;0.67;0.67;;;;;13.63;100.00;99229.84;4989389;28;45333;-83
2022/09/28 00:29:00;;;;;;;;;4.33;1.00;;;;;13.63;100.00;99227.16;4972805;28;45390;-83
2022/09/28 00:31:30;;;;;;;;;3.00;2.67;;;;;13.62;100.00;99228.09;4988829;28;45433;-83
2022/09/28 00:33:56;;;;;;;;;2.67;1.33;;;;;13.63;100.00;99229.84;4972329;28;45377;-82
2022/09/28 00:36:22;;;;;;;;;3.00;2.00;;;;;13.63;100.00;99235.19;4986855;28;45393;-83
2022/09/28 00:38:50;;;;;;;;;2.00;2.00;;;;;13.63;100.00;99232.50;4971113;28;45774;-83
2022/09/28 00:41:15;;;;;;;;;3.33;1.33;;;;;13.65;100.00;99225.34;4972604;28;45413;-82
2022/09/28 00:43:42;;;;;;;;;2.00;1.67;;;;;13.61;100.00;99210.31;4990423;28;45398;-83
2022/09/28 00:46:11;;;;;;;;;1.33;1.33;;;;;13.64;100.00;99223.59;4972762;28;46569;-83
2022/09/28 00:48:41;;;;;;;;;4.00;1.33;;;;;13.62;100.00;99220.09;4991327;28;45403;-83
2022/09/28 00:51:11;;;;;;;;;2.00;2.00;;;;;13.59;100.00;99214.81;4990295;28;44934;-83
2022/09/28 00:53:42;;;;;;;;;1.00;1.00;;;;;13.61;100.00;99221.00;4975730;28;45556;-83
2022/09/28 00:56:17;;;;;;;;;3.67;1.67;;;;;13.56;100.00;99215.75;4975209;28;45664;-82
2022/09/28 00:58:47;;;;;;;;;2.00;2.00;;;;;13.53;100.00;99218.50;4975092;28;45449;-82
2022/09/28 01:01:12;;;;;;;;;2.00;2.00;;;;;13.55;100.00;99218.47;4974319;28;45365;-82
2022/09/28 01:03:47;;;;;;;;;5.00;3.00;;;;;13.51;100.00;99217.69;4973943;28;44875;-83
2022/09/28 01:06:22;;;;;;;;;2.00;2.00;;;;;13.52;100.00;99221.22;4973724;28;47473;-82
2022/09/28 01:08:51;;;;;;;;;2.00;1.33;;;;;13.43;100.00;99213.41;5005453;28;44852;-82
2022/09/28 01:11:17;;;;;;;;;2.00;2.00;;;;;13.39;100.00;99224.16;5010532;28;45327;-83
2022/09/28 01:13:44;;;;;;;;;2.00;2.00;;;;;13.36;100.00;99218.00;4994798;28;45346;-83
2022/09/28 01:16:34;;;;;;;;;3.00;2.33;;;;;13.33;100.00;99216.28;5009459;28;46190;-81
2022/09/28 01:19:11;;;;;;;;;2.00;2.00;;;;;13.37;100.00;99225.09;4993352;28;45448;-82
2022/09/28 01:22:05;;;;;;;;;1.00;1.00;;;;;13.36;100.00;99218.88;4998819;28;45500;-83
2022/09/28 01:24:55;;;;;;;;;1.67;1.67;;;;;13.41;100.00;99210.75;4954280;28;45671;-82
2022/09/28 01:27:41;;;;;;;;;2.00;2.00;;;;;13.41;100.00;99200.06;4967683;28;47913;-83
2022/09/28 01:30:09;;;;;;;;;2.00;2.00;;;;;13.48;100.00;99208.84;4967413;28;45532;-83
2022/09/28 01:32:54;;;;;;;;;4.00;2.00;;;;;13.48;100.00;99198.16;4968554;28;45450;-82
2022/09/28 01:35:31;;;;;;;;;3.33;3.33;;;;;13.51;100.00;99216.78;4966241;28;45481;-83
2022/09/28 01:38:12;;;;;;;;;3.33;2.00;;;;;13.53;100.00;99206.94;4961741;28;45475;-83
2022/09/28 01:40:39;;;;;;;;;2.33;2.33;;;;;13.54;100.00;99211.38;4945382;28;45355;-83
2022/09/28 01:43:09;;;;;;;;;2.00;2.00;;;;;13.56;100.00;99205.06;4963041;28;45545;-83
2022/09/28 01:45:42;;;;;;;;;3.67;3.33;;;;;13.40;100.00;99182.31;4963004;28;45443;-83
2022/09/28 01:48:12;;;;;;;;;3.67;3.00;;;;;13.55;100.00;99202.44;4962481;28;45450;-83
2022/09/28 01:50:41;;;;;;;;;2.33;1.67;;;;;13.53;100.00;99188.22;4963042;28;45402;-82
2022/09/28 01:53:18;;;;;;;;;0.00;0.00;;;;;13.58;100.00;99197.91;4968397;28;45507;-83
2022/09/28 01:55:49;;;;;;;;;2.00;1.33;;;;;13.58;100.00;99191.69;4966864;28;45507;-82
2022/09/28 01:58:41;;;;;;;;;3.67;2.33;;;;;13.61;100.00;99202.28;4968250;28;46656;-83
2022/09/28 02:01:15;;;;;;;;;2.00;2.00;;;;;13.59;100.00;99185.41;4953675;28;45414;-83
2022/09/28 02:03:51;;;;;;;;;1.33;1.33;;;;;13.64;100.00;99196.88;4969235;28;45417;-82
2022/09/28 02:06:27;;;;;;;;;1.00;1.00;;;;;13.57;100.00;99185.47;4970367;28;45340;-83
2022/09/28 02:09:08;;;;;;;;;3.00;2.00;;;;;13.58;100.00;99191.69;5001365;28;46787;-83
2022/09/28 02:11:36;;;;;;;;;1.00;1.00;;;;;13.56;100.00;99186.38;5007098;28;45375;-83
2022/09/28 02:14:05;;;;;;;;;2.00;1.00;;;;;13.63;100.00;99194.25;4997143;28;45475;-83
2022/09/28 02:16:41;;;;;;;;;1.67;0.00;;;;;13.62;100.00;99192.50;4990380;28;45456;-83
2022/09/28 02:19:14;;;;;;;;;2.67;2.00;;;;;13.65;100.00;99192.41;5006268;28;48468;-83
2022/09/28 02:21:52;;;;;;;;;2.33;2.33;;;;;13.68;100.00;99192.38;5009820;28;45443;-83
2022/09/28 02:24:46;;;;;;;;;1.00;1.00;;;;;13.64;100.00;99185.34;4989015;28;45424;-83
2022/09/28 02:27:17;;;;;;;;;2.33;2.00;;;;;13.67;100.00;99186.13;4982197;28;45591;-82
2022/09/28 02:29:42;;;;;;;;;3.00;3.00;;;;;13.65;100.00;99171.91;5010561;28;45474;-83
2022/09/28 02:32:08;;;;;;;;;1.00;1.00;;;;;13.69;100.00;99188.75;4992172;28;44826;-83
2022/09/28 02:34:34;;;;;;;;;3.33;2.00;;;;;13.64;100.00;99162.16;4992970;28;45462;-83
2022/09/28 02:37:00;;;;;;;;;1.00;1.00;;;;;13.67;100.00;99183.44;5010264;28;45517;-83
2022/09/28 02:39:26;;;;;;;;;1.00;1.00;;;;;13.65;100.00;99182.59;4992822;28;48694;-83
2022/09/28 02:42:06;;;;;;;;;2.00;2.00;;;;;13.66;100.00;99184.38;4992601;28;45692;-83
2022/09/28 02:44:41;;;;;;;;;1.67;1.67;;;;;13.69;100.00;99175.41;4992329;28;45510;-83
2022/09/28 02:47:40;;;;;;;;;2.00;2.00;;;;;13.63;100.00;99167.53;5010669;28;45546;-83
2022/09/28 02:50:21;;;;;;;;;1.00;1.00;;;;;13.60;100.00;99171.16;4991718;28;46830;-83
2022/09/28 02:53:13;;;;;;;;;6.00;3.00;;;;;13.56;100.00;99172.16;4991276;28;45483;-83
2022/09/28 02:55:44;;;;;;;;;2.00;2.00;;;;;13.56;100.00;99182.84;4990892;28;45568;-83
2022/09/28 03:01:57;;;;;;;;;3.00;3.00;;;;;13.57;100.00;99179.22;5009438;28;45446;-85
2022/09/28 03:04:45;;;;;;;;;3.00;2.00;;;;;13.50;100.00;99172.28;4989980;28;45430;-83
2022/09/28 03:07:26;;;;;;;;;4.00;2.00;;;;;13.47;100.00;99175.91;5010913;28;45600;-83
2022/09/28 03:10:07;;;;;;;;;2.67;2.67;;;;;13.43;100.00;99174.22;5009952;28;44932;-83
2022/09/28 03:12:36;;;;;;;;;2.00;2.00;;;;;13.44;100.00;99185.78;4990556;28;47316;-83
2022/09/28 03:15:22;;;;;;;;;4.00;3.00;;;;;13.44;100.00;99188.47;4991204;28;45525;-83
2022/09/28 03:17:48;;;;;;;;;1.33;1.33;;;;;13.33;100.00;99170.88;4985169;28;45510;-83
2022/09/28 03:20:14;;;;;;;;;2.00;2.00;;;;;13.36;100.00;99181.50;4989138;28;45424;-82
2022/09/28 03:22:41;;;;;;;;;3.00;3.00;;;;;13.35;100.00;99185.09;4972346;28;47358;-83
2022/09/28 03:25:53;;;;;;;;;4.00;3.00;;;;;13.35;100.00;99192.19;4973140;28;45459;-82
2022/09/28 03:28:20;;;;;;;;;1.00;1.00;;;;;13.28;100.00;99186.09;4991417;28;45410;-82
2022/09/28 03:30:45;;;;;;;;;1.67;1.67;;;;;13.32;100.00;99203.81;4992881;28;45336;-83
2022/09/28 03:33:11;;;;;;;;;2.67;2.00;;;;;13.33;100.00;99197.59;4992758;28;46252;-82
2022/09/28 03:35:36;;;;;;;;;2.33;2.00;;;;;13.29;100.00;99195.91;4991619;28;45407;-82
2022/09/28 03:41:24;;;;;;;;;3.00;2.33;;;;;13.25;100.00;99199.53;4989857;28;45360;-83
2022/09/28 03:43:49;;;;;;;;;2.00;2.00;;;;;13.26;100.00;99205.72;4973206;28;47515;-83
2022/09/28 03:46:15;;;;;;;;;3.00;3.00;;;;;13.24;100.00;99202.22;4989415;28;45416;-82
2022/09/28 03:48:40;;;;;;;;;3.00;1.00;;;;;13.24;100.00;99196.88;4971078;28;45377;-83
2022/09/28 03:51:08;;;;;;;;;2.00;2.00;;;;;13.20;100.00;99193.38;4972098;28;45397;-83
2022/09/28 03:53:34;;;;;;;;;4.00;2.00;;;;;13.16;100.00;99205.91;4989095;28;45562;-83
2022/09/28 03:56:10;;;;;;;;;4.00;2.00;;;;;13.12;100.00;99193.53;4986523;28;45549;-83
2022/09/28 03:58:35;;;;;;;;;2.33;1.67;;;;;13.11;100.00;99198.91;4988478;28;44856;-83
2022/09/28 04:01:04;;;;;;;;;2.33;1.00;;;;;13.10;100.00;99199.84;4988410;28;45399;-84
2022/09/28 04:03:30;;;;;;;;;3.00;3.00;;;;;13.02;100.00;99200.84;4968990;28;47349;-84
2022/09/28 04:05:55;;;;;;;;;2.00;2.00;;;;;13.04;100.00;99195.50;4988577;28;45366;-81
2022/09/28 04:08:21;;;;;;;;;3.00;3.00;;;;;13.10;100.00;99208.72;4988451;28;45423;-83
2022/09/28 04:10:46;;;;;;;;;3.00;3.00;;;;;13.11;100.00;99220.25;4988949;28;45427;-83
2022/09/28 04:13:12;;;;;;;;;3.00;3.00;;;;;13.08;100.00;99207.00;4970459;28;46643;-83
2022/09/28 04:15:39;;;;;;;;;1.33;1.33;;;;;13.02;100.00;99214.19;4979010;28;45400;-83
2022/09/28 04:18:13;;;;;;;;;2.00;2.00;;;;;12.95;100.00;99209.91;5008436;28;45424;-83
2022/09/28 04:20:40;;;;;;;;;2.00;2.00;;;;;13.00;100.00;99224.03;5008533;28;45456;-83
2022/09/28 04:23:06;;;;;;;;;2.67;2.67;;;;;13.00;100.00;99221.34;5007584;28;45452;-83
2022/09/28 04:25:31;;;;;;;;;3.00;3.00;;;;;12.97;100.00;99216.09;4990412;28;44732;-83
2022/09/28 04:30:40;;;;;;;;;2.00;2.00;;;;;13.06;100.00;99224.81;5006981;28;45423;-82
2022/09/28 04:33:06;;;;;;;;;3.00;3.00;;;;;13.09;100.00;99219.41;5006693;28;47666;-82
2022/09/28 04:35:31;;;;;;;;;3.00;2.00;;;;;13.14;100.00;99218.41;5006802;28;45340;-83
2022/09/28 04:37:57;;;;;;;;;5.00;3.00;;;;;13.16;100.00;99226.41;5006464;28;45436;-83
2022/09/28 04:40:22;;;;;;;;;4.33;3.00;;;;;13.12;100.00;99233.56;4988934;28;45447;-83
2022/09/28 04:42:55;;;;;;;;;5.67;3.00;;;;;13.20;100.00;99236.97;4988576;28;47489;-84
2022/09/28 04:45:22;;;;;;;;;4.00;4.00;;;;;13.20;100.00;99228.09;5006298;28;45817;-84
2022/09/28 04:47:48;;;;;;;;;5.00;4.00;;;;;13.22;100.00;99236.94;5006328;28;44804;-84
2022/09/28 04:50:21;;;;;;;;;4.00;2.33;;;;;13.23;100.00;99221.78;4988620;28;45369;-84
2022/09/28 04:52:46;;;;;;;;;2.00;2.00;;;;;13.32;100.00;99238.53;4986602;28;48940;-84
2022/09/28 04:55:13;;;;;;;;;4.33;3.00;;;;;13.34;100.00;99235.84;4986635;28;45470;-84
2022/09/28 04:57:39;;;;;;;;;2.00;2.00;;;;;13.33;100.00;99232.31;5004287;28;45371;-84
2022/09/28 05:00:05;;;;;;;;;2.67;2.67;;;;;13.27;100.00;99218.16;5006738;28;45394;-84
2022/09/28 05:02:31;;;;;;;;;4.33;4.00;;;;;13.30;100.00;99231.47;5005665;28;45387;-84
2022/09/28 05:04:57;;;;;;;;;3.00;3.00;;;;;13.30;100.00;99228.81;5006885;28;45616;-84
2022/09/28 05:07:23;;;;;;;;;2.00;2.00;;;;;13.29;100.00;99227.00;5005705;28;45507;-83
2022/09/28 05:09:55;;;;;;;;;2.00;2.00;;;;;13.28;100.00;99233.28;4971345;28;45688;-83
2022/09/28 05:12:21;;;;;;;;;5.00;3.67;;;;;13.27;100.00;99228.81;4949622;28;47230;-84
2022/09/28 05:14:47;;;;;;;;;2.67;2.67;;;;;13.27;100.00;99229.72;4932869;28;45525;-83
2022/09/28 05:17:12;;;;;;;;;7.00;4.00;;;;;13.23;100.00;99228.03;4950981;28;45418;-84
2022/09/28 05:19:37;;;;;;;;;5.33;5.33;;;;;13.28;100.00;99234.16;4933648;28;45565;-84
2022/09/28 05:22:04;;;;;;;;;2.67;2.00;;;;;13.28;100.00;99227.94;4951127;28;45875;-84
2022/09/28 05:24:30;;;;;;;;;4.00;4.00;;;;;13.35;100.00;99232.25;4951614;28;44851;-84
2022/09/28 05:26:56;;;;;;;;;2.00;2.00;;;;;13.39;100.00;99229.50;4951598;28;45445;-83
2022/09/28 05:29:22;;;;;;;;;3.67;2.00;;;;;13.38;100.00;99225.06;4951435;28;45706;-84
2022/09/28 05:31:47;;;;;;;;;3.33;3.33;;;;;13.44;100.00;99225.84;4951938;28;46419;-83
2022/09/28 05:34:13;;;;;;;;;3.00;3.00;;;;;13.37;100.00;99220.63;4933846;28;45417;-84
2022/09/28 05:36:39;;;;;;;;;3.00;3.00;;;;;13.43;100.00;99222.28;4950365;28;45859;-83
2022/09/28 05:39:52;;;;;;;;;3.00;3.00;;;;;13.40;100.00;99225.91;4932207;28;45583;-83
2022/09/28 05:42:17;;;;;;;;;2.00;2.00;;;;;13.39;100.00;99228.59;4933761;28;47724;-83
2022/09/28 05:44:42;;;;;;;;;3.00;3.00;;;;;13.35;100.00;99227.81;4952095;28;44756;-84
2022/09/28 05:47:08;;;;;;;;;4.33;4.00;;;;;13.35;100.00;99235.81;4951304;28;45346;-83
2022/09/28 05:49:33;;;;;;;;;6.00;6.00;;;;;13.35;100.00;99234.91;4951555;28;45573;-83
2022/09/28 05:51:59;;;;;;;;;6.00;5.00;;;;;13.37;100.00;99234.00;4949539;28;45423;-83
2022/09/28 05:54:24;;;;;;;;;5.67;4.00;;;;;13.38;100.00;99235.72;4932701;28;45469;-83
2022/09/28 05:56:50;;;;;;;;;5.00;4.00;;;;;13.37;100.00;99228.66;4931781;28;45419;-83
2022/09/28 05:59:15;;;;;;;;;6.00;4.00;;;;;13.43;100.00;99234.75;4932672;28;44867;-84
2022/09/28 06:01:41;;;;;;;;;3.00;3.00;;;;;13.42;100.00;99244.56;4931512;28;47036;-84
2022/09/28 06:04:07;;;;;;;;;5.33;5.00;;;;;13.43;100.00;99245.44;4932796;28;45373;-83
2022/09/28 06:06:34;;;;;;;;;3.67;3.67;;;;;13.48;100.00;99243.56;4935453;28;44791;-84
2022/09/28 06:09:00;;;;;;;;;8.67;7.00;;;;;13.49;100.00;99250.66;4996731;28;45765;-84
2022/09/28 06:11:26;;;;;;;;;8.33;6.67;;;;;13.56;100.00;99252.28;4991877;28;47971;-83
2022/09/28 06:13:54;;;;;;;;;6.00;6.00;;;;;13.51;100.00;99243.47;5009909;28;44713;-83
2022/09/28 06:19:42;;;;;;;;;4.00;4.00;;;;;13.59;100.00;99257.53;5006041;28;45367;-84
2022/09/28 06:22:08;;;;;;;;;5.00;5.00;;;;;13.59;100.00;99257.53;5004384;28;45775;-83
2022/09/28 06:24:33;;;;;;;;;6.33;6.33;;;;;13.58;100.00;99262.00;4985959;28;45479;-82
2022/09/28 06:26:59;;;;;;;;;6.00;5.00;;;;;13.58;100.00;99259.34;4985128;28;45408;-82
2022/09/28 06:29:26;;;;;;;;;6.33;5.67;;;;;13.56;100.00;99252.28;4982932;28;45825;-82
2022/09/28 06:31:51;;;;;;;;;4.00;4.00;;;;;13.57;100.00;99259.38;5002296;28;45757;-82
2022/09/28 06:34:17;;;;;;;;;3.67;3.33;;;;;13.58;100.00;99263.81;5003669;28;44771;-82
2022/09/28 06:36:43;;;;;;;;;3.33;3.33;;;;;13.55;100.00;99266.53;4986807;28;45465;-85
2022/09/28 06:39:08;;;;;;;;;3.33;3.33;;;;;13.52;100.00;99261.28;4988208;28;45304;-84
2022/09/28 06:41:34;;;;;;;;;4.67;4.67;;;;;13.55;100.00;99271.88;5005475;28;44922;-83
2022/09/28 06:44:00;;;;;;;;;5.00;5.00;;;;;13.58;100.00;99279.84;5006373;28;44845;-83
2022/09/28 06:46:26;;;;;;;;;8.67;7.00;;;;;13.61;100.00;99277.09;4988653;28;45772;-83
2022/09/28 06:48:53;;;;;;;;;4.00;4.00;;;;;13.70;100.00;99287.59;4988181;28;45463;-83
2022/09/28 06:51:20;;;;;;;;;6.00;4.00;;;;;13.72;100.00;99275.06;4985799;28;47230;-84
2022/09/28 06:53:46;;;;;;;;;4.67;4.67;;;;;13.78;100.00;99280.28;4987798;28;45333;-83
2022/09/28 06:56:12;;;;;;;;;10.33;5.67;;;;;13.85;100.00;99296.16;4992593;28;44779;-84
2022/09/28 06:58:38;;;;;;;;;8.00;6.33;;;;;13.88;100.00;99285.44;4970928;28;45512;-83
2022/09/28 07:01:04;;;;;;;;;6.33;5.00;;;;;13.91;100.00;99294.22;4988226;28;46652;-82
2022/09/28 07:03:32;;;;;;;;;6.00;6.00;;;;;13.97;100.00;99295.88;4988584;28;44939;-83
2022/09/28 07:06:03;;;;;;;;;6.00;4.67;;;;;13.99;100.00;99302.06;5007045;28;45718;-83
2022/09/28 07:08:28;;;;;;;;;4.00;4.00;;;;;13.96;100.00;99302.16;4984922;28;45422;-84
2022/09/28 07:10:55;;;;;;;;;6.67;6.00;;;;;13.92;100.00;99309.38;4989323;28;45650;-82
2022/09/28 07:13:29;;;;;;;;;6.33;6.33;;;;;14.00;100.00;99307.41;4988098;28;45404;-82
2022/09/28 07:16:07;;;;;;;;;;;;;;;;;;;;;
2022/09/28 07:18:32;;;;;;;;;7.00;5.00;;;;;14.06;100.00;99311.72;4979694;28;66368;-82
2022/09/28 07:20:58;;;;;;;;;6.00;4.00;;;;;14.12;100.00;99316.94;4969060;28;46896;-83
2022/09/28 07:23:28;;;;;;;;;6.00;6.00;;;;;14.18;100.00;99307.91;4962634;28;45327;-83
2022/09/28 07:25:53;;;;;;;;;6.00;4.00;;;;;14.19;100.00;99304.28;4952201;28;45435;-83
2022/09/28 07:28:20;;;;;;;;;6.00;5.67;;;;;14.21;100.00;99311.34;4952622;28;45649;-82
2022/09/28 07:30:45;;;;;;;;;4.67;4.67;;;;;14.28;100.00;99312.09;4953682;28;45488;-82
2022/09/28 07:33:16;;;;;;;;;5.33;5.00;;;;;14.26;100.00;99315.72;4969335;28;45463;-85
2022/09/28 07:35:54;;;;;;;;;4.00;4.00;;;;;14.17;100.00;99308.78;4951908;28;45431;-84
2022/09/28 07:39:28;;;;;;;;;6.00;6.00;;;;;14.03;100.00;99292.19;4953173;28;44958;-83
2022/09/28 07:41:57;;;;;;;;;4.00;4.00;;;;;14.25;100.00;99322.00;4815631;29;45198;-83
2022/09/28 07:44:38;;;;;;;;;4.67;3.67;;;;;14.11;100.00;99323.19;4817774;29;45505;-83
2022/09/28 07:50:53;;;;;;;;;2.67;2.33;;;;;14.05;100.00;99344.72;4812526;29;44927;-82
2022/09/28 07:53:38;;;;;;;;;3.00;3.00;;;;;13.98;100.00;99330.59;4803687;29;45130;-83
2022/09/28 07:56:19;;;;;;;;;3.33;2.00;;;;;14.03;100.00;99322.47;4814366;29;45355;-83
2022/09/28 07:59:44;;;;;;;;;4.00;4.00;;;;;14.23;100.00;99339.88;4807028;29;45472;-84
2022/09/28 08:02:10;;;;;;;;;3.00;3.00;;;;;14.21;100.00;99347.91;4816173;29;44883;-83
2022/09/28 08:04:52;;;;;;;;;6.00;3.00;;;;;13.95;100.00;99298.59;4819080;29;45487;-84
2022/09/28 08:07:57;;;;;;;;;;;;;;;;;;;;;
2022/09/28 08:10:39;;;;;;;;;5.33;4.33;;;;;14.05;100.00;99312.63;4834373;29;45562;-84
2022/09/28 08:13:33;;;;;;;;;2.00;2.00;;;;;13.89;100.00;99297.84;4823343;29;45387;-83
2022/09/28 08:16:23;;;;;;;;;2.00;2.00;;;;;14.11;100.00;99357.94;4820469;29;45467;-83
2022/09/28 08:19:06;;;;;;;;;;;;;;;;;;;;;
2022/09/28 08:21:56;;;;;;;;;4.33;4.33;;;;;14.13;100.00;99361.44;4904699;29;68066;-84
2022/09/28 08:24:45;;;;;;;;;3.00;1.33;;;;;13.94;100.00;99328.91;4910321;29;45590;-83
2022/09/28 08:27:15;;;;;;;;;3.00;3.00;;;;;14.07;100.00;99342.88;4895851;29;47077;-82
2022/09/28 08:29:46;;;;;;;;;3.00;1.00;;;;;14.17;100.00;99356.91;4894741;29;45178;-83
2022/09/28 08:32:47;;;;;;;;;;;;;;;;;;;;;
2022/09/28 08:36:07;;;;;;;;;2.00;2.00;;;;;14.29;100.00;99363.78;4914197;29;64200;-86
2022/09/28 08:42:46;;;;;;;;;3.00;1.00;;;;;14.26;100.00;99361.16;4887005;29;45416;-85
2022/09/28 08:46:20;;;;;;;;;2.00;2.00;;;;;14.45;100.00;99361.63;4907789;29;45208;-85
2022/09/28 08:52:28;;;;;;;;;3.33;3.00;;;;;14.56;100.00;99367.63;4854669;29;45382;-85
2022/09/28 08:58:53;;;;;;;;;3.00;2.00;;;;;14.55;100.00;99352.47;4894425;29;45514;-84
2022/09/28 09:46:28;;;;;;;;;;;;;;;;;;;;;
2022/09/28 09:56:38;;;;;;;;;1.33;1.33;;;;;15.06;100.00;99348.53;4855832;29;45474;-85
2022/09/28 09:59:13;;;;;;;;;2.00;2.00;;;;;15.14;100.00;99343.84;4841698;29;45534;-85
2022/09/28 10:05:10;;;;;;;;;2.67;2.00;;;;;15.37;100.00;99359.28;5007795;23;45578;-84
2022/09/28 10:18:55;;;;;;;;;;;;;;;;;;;;;
2022/09/28 10:21:29;;;;;;;;;2.00;2.00;;;;;15.55;100.00;99357.88;4824446;29;45780;-83
2022/09/28 10:24:37;;;;;;;;;3.00;2.00;;;;;15.71;100.00;99336.88;4855806;29;45444;-82
2022/09/28 10:27:23;;;;;;;;;3.67;2.00;;;;;15.63;90.70;99312.09;4837476;29;45512;-84
2022/09/28 10:30:08;;;;;;;;;2.00;2.00;;;;;15.82;96.49;99358.94;4828885;29;45486;-84
2022/09/28 10:33:04;;;;;;;;;;;;;;;;;;;;;
2022/09/28 10:36:37;;;;;;;;;2.00;2.00;;;;;15.78;97.90;99357.25;4857986;29;72093;-85
2022/09/28 10:39:54;;;;;;;;;;;;;;;;;;;;;
2022/09/28 10:43:00;;;;;;;;;5.67;3.00;;;;;16.49;96.65;99331.81;4831799;29;66560;-85
2022/09/28 10:45:27;;;;;;;;;2.00;2.00;;;;;16.85;94.70;99349.47;4762956;29;46715;-84
2022/09/28 10:47:57;;;;;;;;;1.00;1.00;;;;;16.72;91.90;99312.22;4760875;29;44807;-81
2022/09/28 10:50:39;;;;;;;;;2.00;2.00;;;;;16.89;90.62;99318.88;4753197;29;45021;-82
2022/09/28 10:53:26;;;;;;;;;1.67;1.67;;;;;16.75;87.28;99298.72;4801619;29;44971;-82
2022/09/28 10:56:03;;;;;;;;;3.00;3.00;;;;;17.00;89.43;99338.19;4800940;29;45871;-83
2022/09/28 10:58:35;;;;;;;;;1.67;1.00;;;;;16.96;81.80;99342.78;4801764;29;45538;-84
2022/09/28 11:01:08;;;;;;;;;1.33;1.33;;;;;16.90;83.27;99347.47;4803249;29;45727;-83
2022/09/28 11:04:13;;;;;;;;;2.00;2.00;;;;;16.90;84.82;99332.25;4799519;29;45703;-84
2022/09/28 11:06:40;;;;;;;;;1.25;1.25;;;;;16.81;88.69;99308.41;4802055;29;45540;-83
2022/09/28 11:09:32;;;;;;;;;2.25;1.75;;;;;17.13;88.36;99344.03;4804385;29;44878;-84
2022/09/28 11:12:00;;;;;;;;;4.00;3.33;;;;;17.17;83.28;99346.53;4773891;29;45558;-81
2022/09/28 11:14:39;;;;;;;;;2.00;2.00;;;;;17.08;87.80;99335.22;4790717;29;45681;-84
2022/09/28 11:24:26;;;;;;;;;3.00;1.00;;;;;16.85;84.53;99349.47;5020739;23;45968;-86
2022/09/28 11:27:01;;;;;;;;;2.75;2.50;;;;;16.88;82.90;99360.09;4867567;29;44826;-84
2022/09/28 11:39:55;;;;;;;;;2.25;1.50;;;;;16.46;84.84;99348.03;1169363;26;45931;-85
2022/09/28 11:43:01;;;;;;;;;3.00;1.25;;;;;16.63;84.31;99365.38;4917090;28;45350;-85
2022/09/28 11:50:54;;;;;;;;;1.00;1.00;;;;;16.51;85.41;99327.25;4090827;26;45185;-84
2022/09/28 11:54:14;;;;;;;;;;;;;;;;;;;;;
2022/09/28 12:00:48;;;;;;;;;;;;;;;;;;;;;
2022/09/28 12:04:00;;;;;;;;;3.33;2.00;;;;;16.34;85.38;99292.03;4840776;28;74790;-81
2022/09/28 12:06:38;;;;;;;;;4.00;2.00;;;;;16.50;84.63;99325.53;4864619;28;45788;-83
2022/09/28 12:09:27;;;;;;;;;2.67;2.33;;;;;16.55;86.68;99331.59;4862403;29;45420;-83
2022/09/28 12:12:05;;;;;;;;;2.33;2.00;;;;;16.62;86.51;99301.88;4848113;29;45472;-84
2022/09/28 12:14:39;;;;;;;;;2.00;2.00;;;;;16.64;85.47;99297.31;4849126;29;46978;-82
2022/09/28 12:17:50;;;;;;;;;2.33;2.33;;;;;16.93;86.37;99329.47;4873009;28;45463;-83
2022/09/28 12:20:28;;;;;;;;;1.67;1.67;;;;;16.96;82.57;99317.72;4835905;29;45492;-81
2022/09/28 12:23:06;;;;;;;;;4.00;2.00;;;;;16.88;85.08;99315.31;4818407;29;45425;-83
2022/09/28 12:25:51;;;;;;;;;2.00;2.00;;;;;16.89;85.39;99295.59;4818414;29;46926;-83
2022/09/28 12:28:27;;;;;;;;;5.33;4.00;;;;;17.13;85.37;99296.53;4818577;29;45691;-83
2022/09/28 12:30:56;;;;;;;;;4.00;2.33;;;;;17.18;84.30;99274.88;4822270;29;45441;-83
2022/09/28 12:33:21;;;;;;;;;2.33;2.33;;;;;17.25;83.72;99280.88;4828218;29;45069;-84
2022/09/28 12:36:13;;;;;;;;;2.33;2.33;;;;;17.46;83.91;99308.78;4808356;29;46881;-81
2022/09/28 12:39:49;;;;;;;;;;;;;;;;;;;;;
2022/09/28 12:43:35;;;;;;;;;2.67;2.67;;;;;17.24;86.51;99314.94;4753379;29;68844;-82
2022/09/28 12:46:25;;;;;;;;;4.25;3.00;;;;;17.26;86.38;99310.38;4749813;29;45054;-84
2022/09/28 12:56:29;;;;;;;;;2.67;2.00;;;;;17.71;85.52;99304.22;4804344;29;45543;-83
2022/09/28 13:46:25;;;;;;;;;3.33;2.00;;;;;18.70;76.93;99251.84;4856591;29;46464;-84
2022/09/28 13:49:16;;;;;;;;;1.00;1.00;;;;;18.95;76.14;99284.03;4800072;29;46419;-84
2022/09/28 13:52:04;;;;;;;;;2.00;2.00;;;;;18.61;71.75;99282.72;4846202;29;44900;-84
2022/09/28 13:54:54;;;;;;;;;2.00;2.00;;;;;17.94;74.26;99263.03;4839786;29;45424;-85
2022/09/28 13:57:55;;;;;;;;;1.75;0.00;;;;;17.55;77.35;99312.03;4884552;28;45544;-82
2022/09/28 14:01:12;;;;;;;;;1.00;1.00;;;;;16.53;88.80;99333.44;4926297;28;47383;-84
2022/09/28 14:07:54;;;;;;;;;1.00;1.00;;;;;15.11;100.00;99293.06;4934322;28;45203;-83
2022/09/28 14:18:19;;;;;;;;;2.00;2.00;;;;;14.80;100.00;99334.91;4877293;29;44887;-84
2022/09/28 14:21:21;;;;;;;;;1.00;1.00;;;;;14.74;100.00;99334.19;4858268;29;44868;-82
2022/09/28 14:24:44;;;;;;;;;1.00;1.00;;;;;14.76;100.00;99332.34;4848483;28;45210;-82
2022/09/28 14:34:50;;;;;;;;;1.00;1.00;;;;;15.57;100.00;99329.22;4782994;29;45489;-83
2022/09/28 14:53:05;;;;;;;;;;;;;;;;;;;;;
2022/09/28 15:27:32;;;;;;;;;1.33;1.33;;;;;16.78;92.85;99305.78;4832607;29;45545;-83
2022/09/28 16:03:20;;;;;;;;;2.33;2.33;;;;;16.39;89.99;99303.50;3218438;26;45912;-86
2022/09/28 16:06:04;;;;;;;;;2.00;1.00;;;;;16.59;89.04;99311.78;4894732;28;46006;-85
2022/09/28 16:08:31;;;;;;;;;1.33;1.33;;;;;16.73;88.19;99305.06;4899660;28;45236;-85
2022/09/28 16:11:28;;;;;;;;;2.00;1.00;;;;;16.84;87.92;99305.59;4911801;28;44881;-84
2022/09/28 16:14:13;;;;;;;;;3.67;2.67;;;;;16.84;87.71;99308.28;4877167;28;47642;-83
2022/09/28 16:20:28;;;;;;;;;2.00;1.75;;;;;16.72;85.46;99314.03;4876687;28;45319;-82
2022/09/28 16:23:04;;;;;;;;;2.00;2.00;;;;;16.44;86.49;99289.94;4871010;29;45375;-84
2022/09/28 16:25:34;;;;;;;;;2.00;1.00;;;;;16.51;87.13;99313.84;4863186;28;46853;-82
2022/09/28 16:28:00;;;;;;;;;2.50;2.00;;;;;16.39;87.60;99315.13;4878360;28;44770;-84
2022/09/28 16:30:42;;;;;;;;;1.00;1.00;;;;;16.11;87.21;99282.06;4893814;28;45458;-84
2022/09/28 16:33:29;;;;;;;;;3.33;2.00;;;;;16.21;87.48;99313.03;4906426;28;45007;-84
2022/09/28 16:35:54;;;;;;;;;2.67;2.67;;;;;16.10;88.17;99324.13;4876917;28;47176;-85
2022/09/28 16:38:20;;;;;;;;;1.00;1.00;;;;;16.03;88.79;99321.66;4878841;28;45513;-85
2022/09/28 16:40:55;;;;;;;;;3.00;2.00;;;;;15.98;88.73;99319.13;4895190;28;45423;-83
2022/09/28 16:43:25;;;;;;;;;3.67;2.33;;;;;15.92;88.97;99313.97;4878357;28;45440;-84
2022/09/28 16:46:12;;;;;;;;;2.33;2.33;;;;;15.85;88.80;99307.88;4909941;28;47255;-83
2022/09/28 16:48:47;;;;;;;;;1.67;1.67;;;;;15.72;89.34;99294.00;4885146;28;45348;-85
2022/09/28 16:51:14;;;;;;;;;2.00;1.00;;;;;15.70;89.98;99303.84;4895209;28;44753;-84
2022/09/28 16:56:32;;;;;;;;;2.67;2.67;;;;;15.60;91.55;99297.00;4895885;28;45002;-84
2022/09/28 16:58:58;;;;;;;;;3.00;3.00;;;;;15.53;92.62;99285.59;4865439;29;45529;-83
2022/09/28 17:01:24;;;;;;;;;3.00;3.00;;;;;15.51;93.39;99289.22;4896942;28;44875;-83
2022/09/28 17:03:51;;;;;;;;;2.00;2.00;;;;;15.49;92.75;99301.78;4879250;28;45560;-82
2022/09/28 17:06:19;;;;;;;;;1.00;1.00;;;;;15.43;90.22;99297.50;4902083;28;46897;-84
2022/09/28 17:08:45;;;;;;;;;2.00;2.00;;;;;15.39;91.07;99315.47;4879808;28;45307;-84